sensor_id;sensor_type;location;lat;lon;timestamp;pressure;altitude;pressure_sealevel;temperature;humidity
7760;BME280;3924;48.830;9.262;2023-04-23T00:01:07;97934.59;;;15.21;63.72
7760;BME280;3924;48.830;9.262;2023-04-23T00:03:35;97933.69;;;15.17;63.72
7760;BME280;3924;48.830;9.262;2023-04-23T00:06:04;97927.88;;;15.18;63.91
7760;BME280;3924;48.830;9.262;2023-04-23T00:08:31;97926.59;;;15.16;63.73
7760;BME280;3924;48.830;9.262;2023-04-23T00:10:58;97925.50;;;15.17;63.75
7760;BME280;3924;48.830;9.262;2023-04-23T00:13:25;97932.75;;;15.13;63.87
7760;BME280;3924;48.830;9.262;2023-04-23T00:15:52;97937.88;;;15.14;63.96
7760;BME280;3924;48.830;9.262;2023-04-23T00:18:18;97942.09;;;15.12;64.11
7760;BME280;3924;48.830;9.262;2023-04-23T00:20:45;97935.69;;;15.08;63.90
7760;BME280;3924;48.830;9.262;2023-04-23T00:23:12;97933.31;;;15.06;63.94
7760;BME280;3924;48.830;9.262;2023-04-23T00:25:38;97934.09;;;15.07;63.89
7760;BME280;3924;48.830;9.262;2023-04-23T00:28:05;97937.28;;;15.09;63.78
7760;BME280;3924;48.830;9.262;2023-04-23T00:30:32;97944.34;;;15.10;63.90
7760;BME280;3924;48.830;9.262;2023-04-23T00:32:58;97936.50;;;15.08;63.73
7760;BME280;3924;48.830;9.262;2023-04-23T00:35:25;97940.00;;;15.09;63.82
7760;BME280;3924;48.830;9.262;2023-04-23T00:37:51;97940.34;;;15.07;63.87
7760;BME280;3924;48.830;9.262;2023-04-23T00:40:18;97948.53;;;15.07;63.94
7760;BME280;3924;48.830;9.262;2023-04-23T00:42:46;97957.53;;;15.08;64.01
7760;BME280;3924;48.830;9.262;2023-04-23T00:45:14;97944.09;;;15.02;63.82
7760;BME280;3924;48.830;9.262;2023-04-23T00:47:41;97953.41;;;15.01;63.99
7760;BME280;3924;48.830;9.262;2023-04-23T00:50:08;97948.66;;;14.98;64.12
7760;BME280;3924;48.830;9.262;2023-04-23T00:52:35;97953.16;;;14.94;64.31
7760;BME280;3924;48.830;9.262;2023-04-23T00:55:01;97956.56;;;14.91;64.47
7760;BME280;3924;48.830;9.262;2023-04-23T00:57:28;97959.97;;;14.88;64.45
7760;BME280;3924;48.830;9.262;2023-04-23T00:59:55;97961.00;;;14.84;64.60
7760;BME280;3924;48.830;9.262;2023-04-23T01:02:24;97969.38;;;14.78;64.83
7760;BME280;3924;48.830;9.262;2023-04-23T01:04:54;97969.91;;;14.72;65.02
7760;BME280;3924;48.830;9.262;2023-04-23T01:07:21;97963.75;;;14.63;65.09
7760;BME280;3924;48.830;9.262;2023-04-23T01:09:51;97960.53;;;14.61;65.44
7760;BME280;3924;48.830;9.262;2023-04-23T01:12:18;97972.13;;;14.58;65.76
7760;BME280;3924;48.830;9.262;2023-04-23T01:14:44;97971.16;;;14.54;65.93
7760;BME280;3924;48.830;9.262;2023-04-23T01:17:11;97969.47;;;14.49;65.92
7760;BME280;3924;48.830;9.262;2023-04-23T01:19:38;97961.94;;;14.46;66.06
7760;BME280;3924;48.830;9.262;2023-04-23T01:22:09;97971.56;;;14.43;66.36
7760;BME280;3924;48.830;9.262;2023-04-23T01:24:36;97977.00;;;14.43;66.50
7760;BME280;3924;48.830;9.262;2023-04-23T01:27:07;97970.75;;;14.43;66.51
7760;BME280;3924;48.830;9.262;2023-04-23T01:29:38;97972.19;;;14.40;66.62
7760;BME280;3924;48.830;9.262;2023-04-23T01:32:07;97967.75;;;14.36;66.62
7760;BME280;3924;48.830;9.262;2023-04-23T01:34:34;97966.47;;;14.33;66.99
7760;BME280;3924;48.830;9.262;2023-04-23T01:37:02;97978.19;;;14.34;66.89
7760;BME280;3924;48.830;9.262;2023-04-23T01:39:29;97975.78;;;14.32;67.17
7760;BME280;3924;48.830;9.262;2023-04-23T01:41:56;97983.97;;;14.32;67.20
7760;BME280;3924;48.830;9.262;2023-04-23T01:44:23;97992.50;;;14.31;67.34
7760;BME280;3924;48.830;9.262;2023-04-23T01:46:50;97987.38;;;14.29;67.34
7760;BME280;3924;48.830;9.262;2023-04-23T01:49:16;97990.44;;;14.28;67.53
7760;BME280;3924;48.830;9.262;2023-04-23T01:51:43;97990.63;;;14.22;67.57
7760;BME280;3924;48.830;9.262;2023-04-23T01:54:10;97998.66;;;14.19;67.62
7760;BME280;3924;48.830;9.262;2023-04-23T01:56:36;97990.69;;;14.14;67.85
7760;BME280;3924;48.830;9.262;2023-04-23T01:59:03;97991.31;;;14.11;68.02
7760;BME280;3924;48.830;9.262;2023-04-23T02:01:45;97992.00;;;14.08;68.18
7760;BME280;3924;48.830;9.262;2023-04-23T02:04:13;98005.13;;;14.06;68.92
7760;BME280;3924;48.830;9.262;2023-04-23T02:06:43;98000.81;;;14.05;68.35
7760;BME280;3924;48.830;9.262;2023-04-23T02:09:11;97996.50;;;14.04;68.53
7760;BME280;3924;48.830;9.262;2023-04-23T02:11:37;97991.84;;;14.04;68.67
7760;BME280;3924;48.830;9.262;2023-04-23T02:14:04;97993.31;;;14.02;68.58
7760;BME280;3924;48.830;9.262;2023-04-23T02:16:31;97997.47;;;13.99;68.76
7760;BME280;3924;48.830;9.262;2023-04-23T02:18:58;98001.66;;;13.96;68.78
7760;BME280;3924;48.830;9.262;2023-04-23T02:21:24;98018.69;;;13.93;69.05
7760;BME280;3924;48.830;9.262;2023-04-23T02:23:52;98022.50;;;13.92;69.31
7760;BME280;3924;48.830;9.262;2023-04-23T02:26:19;98020.91;;;13.91;69.13
7760;BME280;3924;48.830;9.262;2023-04-23T02:28:47;98027.03;;;13.88;69.44
7760;BME280;3924;48.830;9.262;2023-04-23T02:31:14;98019.81;;;13.84;69.63
7760;BME280;3924;48.830;9.262;2023-04-23T02:33:42;98030.59;;;13.80;69.73
7760;BME280;3924;48.830;9.262;2023-04-23T02:36:08;98021.94;;;13.78;69.81
7760;BME280;3924;48.830;9.262;2023-04-23T02:38:37;98013.63;;;13.75;70.11
7760;BME280;3924;48.830;9.262;2023-04-23T02:41:06;98018.91;;;13.71;70.30
7760;BME280;3924;48.830;9.262;2023-04-23T02:43:33;98004.34;;;13.67;70.32
7760;BME280;3924;48.830;9.262;2023-04-23T02:45:59;98009.81;;;13.67;70.60
7760;BME280;3924;48.830;9.262;2023-04-23T02:48:38;98013.16;;;13.64;70.81
7760;BME280;3924;48.830;9.262;2023-04-23T02:51:07;98013.84;;;13.61;71.04
7760;BME280;3924;48.830;9.262;2023-04-23T02:53:34;98008.72;;;13.59;71.05
7760;BME280;3924;48.830;9.262;2023-04-23T02:56:01;97998.44;;;13.56;71.17
7760;BME280;3924;48.830;9.262;2023-04-23T02:58:29;98000.72;;;13.54;71.60
7760;BME280;3924;48.830;9.262;2023-04-23T03:00:56;97994.47;;;13.54;71.76
7760;BME280;3924;48.830;9.262;2023-04-23T03:03:23;98004.88;;;13.52;71.81
7760;BME280;3924;48.830;9.262;2023-04-23T03:05:52;98009.22;;;13.53;71.87
7760;BME280;3924;48.830;9.262;2023-04-23T03:08:18;98018.66;;;13.55;72.31
7760;BME280;3924;48.830;9.262;2023-04-23T03:10:45;98021.03;;;13.57;72.25
7760;BME280;3924;48.830;9.262;2023-04-23T03:13:11;98024.25;;;13.59;72.62
7760;BME280;3924;48.830;9.262;2023-04-23T03:15:39;98016.09;;;13.59;72.62
7760;BME280;3924;48.830;9.262;2023-04-23T03:18:06;98021.03;;;13.57;72.61
7760;BME280;3924;48.830;9.262;2023-04-23T03:20:34;98016.25;;;13.54;73.04
7760;BME280;3924;48.830;9.262;2023-04-23T03:23:01;98012.25;;;13.51;73.09
7760;BME280;3924;48.830;9.262;2023-04-23T03:25:28;98014.84;;;13.48;73.31
7760;BME280;3924;48.830;9.262;2023-04-23T03:27:54;98008.41;;;13.44;73.34
7760;BME280;3924;48.830;9.262;2023-04-23T03:30:21;98009.09;;;13.40;73.66
7760;BME280;3924;48.830;9.262;2023-04-23T03:32:48;98000.91;;;13.40;73.92
7760;BME280;3924;48.830;9.262;2023-04-23T03:35:15;98004.78;;;13.39;73.84
7760;BME280;3924;48.830;9.262;2023-04-23T03:37:42;97995.00;;;13.38;74.10
7760;BME280;3924;48.830;9.262;2023-04-23T03:40:08;97989.06;;;13.36;74.16
7760;BME280;3924;48.830;9.262;2023-04-23T03:42:35;97983.63;;;13.36;74.28
7760;BME280;3924;48.830;9.262;2023-04-23T03:45:02;97987.47;;;13.35;74.64
7760;BME280;3924;48.830;9.262;2023-04-23T03:47:29;97994.03;;;13.34;74.61
7760;BME280;3924;48.830;9.262;2023-04-23T03:49:56;97993.72;;;13.36;74.66
7760;BME280;3924;48.830;9.262;2023-04-23T03:52:22;97989.06;;;13.36;74.78
7760;BME280;3924;48.830;9.262;2023-04-23T03:54:49;97982.03;;;13.35;74.77
7760;BME280;3924;48.830;9.262;2023-04-23T03:57:16;97992.13;;;13.35;74.80
7760;BME280;3924;48.830;9.262;2023-04-23T03:59:42;97990.53;;;13.34;75.02
7760;BME280;3924;48.830;9.262;2023-04-23T04:02:09;97994.03;;;13.34;75.04
7760;BME280;3924;48.830;9.262;2023-04-23T04:04:36;98008.44;;;13.35;75.17
7760;BME280;3924;48.830;9.262;2023-04-23T04:07:03;98020.13;;;13.35;75.16
7760;BME280;3924;48.830;9.262;2023-04-23T04:09:29;98020.81;;;13.32;75.25
7760;BME280;3924;48.830;9.262;2023-04-23T04:11:59;98015.66;;;13.31;75.40
7760;BME280;3924;48.830;9.262;2023-04-23T04:14:25;98019.22;;;13.31;75.57
7760;BME280;3924;48.830;9.262;2023-04-23T04:16:52;98018.25;;;13.27;75.65
7760;BME280;3924;48.830;9.262;2023-04-23T04:19:19;98025.28;;;13.28;75.82
7760;BME280;3924;48.830;9.262;2023-04-23T04:21:45;98015.03;;;13.25;75.59
7760;BME280;3924;48.830;9.262;2023-04-23T04:24:13;98016.47;;;13.23;75.93
7760;BME280;3924;48.830;9.262;2023-04-23T04:26:39;98019.53;;;13.21;75.92
7760;BME280;3924;48.830;9.262;2023-04-23T04:29:06;98006.53;;;13.18;75.99
7760;BME280;3924;48.830;9.262;2023-04-23T04:31:34;98007.66;;;13.17;76.12
7760;BME280;3924;48.830;9.262;2023-04-23T04:34:01;98017.25;;;13.14;76.30
7760;BME280;3924;48.830;9.262;2023-04-23T04:36:27;98026.88;;;13.12;76.35
7760;BME280;3924;48.830;9.262;2023-04-23T04:38:54;98021.44;;;13.12;76.44
7760;BME280;3924;48.830;9.262;2023-04-23T04:41:24;98030.72;;;13.11;76.59
7760;BME280;3924;48.830;9.262;2023-04-23T04:43:51;98028.47;;;13.13;76.71
7760;BME280;3924;48.830;9.262;2023-04-23T04:46:17;98033.13;;;13.12;76.54
7760;BME280;3924;48.830;9.262;2023-04-23T04:48:46;98033.94;;;13.13;76.57
7760;BME280;3924;48.830;9.262;2023-04-23T04:51:13;98027.34;;;13.14;76.51
7760;BME280;3924;48.830;9.262;2023-04-23T04:53:39;98020.78;;;13.15;76.78
7760;BME280;3924;48.830;9.262;2023-04-23T04:56:06;98024.81;;;13.18;76.67
7760;BME280;3924;48.830;9.262;2023-04-23T04:58:33;98028.81;;;13.20;76.78
7760;BME280;3924;48.830;9.262;2023-04-23T05:01:00;98030.41;;;13.21;76.77
7760;BME280;3924;48.830;9.262;2023-04-23T05:03:26;98028.16;;;13.23;76.76
7760;BME280;3924;48.830;9.262;2023-04-23T05:05:53;98038.44;;;13.26;76.93
7760;BME280;3924;48.830;9.262;2023-04-23T05:08:26;98028.47;;;13.30;76.94
7760;BME280;3924;48.830;9.262;2023-04-23T05:10:52;98019.66;;;13.33;76.85
7760;BME280;3924;48.830;9.262;2023-04-23T05:13:19;98016.28;;;13.36;76.79
7760;BME280;3924;48.830;9.262;2023-04-23T05:15:46;98022.69;;;13.40;76.82
7760;BME280;3924;48.830;9.262;2023-04-23T05:18:12;98020.44;;;13.43;76.73
7760;BME280;3924;48.830;9.262;2023-04-23T05:20:39;98028.78;;;13.46;76.91
7760;BME280;3924;48.830;9.262;2023-04-23T05:23:07;98019.63;;;13.51;76.89
7760;BME280;3924;48.830;9.262;2023-04-23T05:25:33;98019.91;;;13.58;76.78
7760;BME280;3924;48.830;9.262;2023-04-23T05:28:01;98016.38;;;13.66;76.73
7760;BME280;3924;48.830;9.262;2023-04-23T05:30:27;98023.38;;;13.76;76.35
7760;BME280;3924;48.830;9.262;2023-04-23T05:32:54;98021.28;;;13.81;76.33
7760;BME280;3924;48.830;9.262;2023-04-23T05:35:21;98024.16;;;13.85;76.44
7760;BME280;3924;48.830;9.262;2023-04-23T05:37:48;98031.69;;;13.88;76.21
7760;BME280;3924;48.830;9.262;2023-04-23T05:40:15;98033.78;;;13.82;76.37
7760;BME280;3924;48.830;9.262;2023-04-23T05:42:41;98030.59;;;13.80;76.59
7760;BME280;3924;48.830;9.262;2023-04-23T05:45:08;98032.19;;;13.81;76.56
7760;BME280;3924;48.830;9.262;2023-04-23T05:47:35;98019.19;;;13.78;76.58
7760;BME280;3924;48.830;9.262;2023-04-23T05:50:02;98023.22;;;13.81;76.74
7760;BME280;3924;48.830;9.262;2023-04-23T05:52:28;98032.97;;;13.82;76.65
7760;BME280;3924;48.830;9.262;2023-04-23T05:55:00;98032.03;;;13.78;76.86
7760;BME280;3924;48.830;9.262;2023-04-23T05:57:27;98033.94;;;13.77;76.97
7760;BME280;3924;48.830;9.262;2023-04-23T05:59:53;98030.09;;;13.87;76.77
7760;BME280;3924;48.830;9.262;2023-04-23T06:02:20;98032.47;;;13.88;76.94
7760;BME280;3924;48.830;9.262;2023-04-23T06:04:50;98035.66;;;13.90;76.91
7760;BME280;3924;48.830;9.262;2023-04-23T06:07:16;98030.22;;;13.90;76.82
7760;BME280;3924;48.830;9.262;2023-04-23T06:09:43;98035.66;;;13.90;76.85
7760;BME280;3924;48.830;9.262;2023-04-23T06:12:09;98029.63;;;14.14;76.47
7760;BME280;3924;48.830;9.262;2023-04-23T06:14:36;98030.56;;;14.18;76.26
7760;BME280;3924;48.830;9.262;2023-04-23T06:17:03;98029.59;;;14.23;76.44
7760;BME280;3924;48.830;9.262;2023-04-23T06:19:29;98029.59;;;14.23;76.39
7760;BME280;3924;48.830;9.262;2023-04-23T06:21:56;98030.91;;;14.17;76.52
7760;BME280;3924;48.830;9.262;2023-04-23T06:24:22;98036.34;;;14.17;76.38
7760;BME280;3924;48.830;9.262;2023-04-23T06:26:48;98034.75;;;14.16;76.53
7760;BME280;3924;48.830;9.262;2023-04-23T06:29:15;98036.19;;;14.13;76.34
7760;BME280;3924;48.830;9.262;2023-04-23T06:31:42;98025.25;;;14.22;76.63
7760;BME280;3924;48.830;9.262;2023-04-23T06:34:08;98033.53;;;14.34;76.30
7760;BME280;3924;48.830;9.262;2023-04-23T06:36:35;98029.47;;;14.49;76.13
7760;BME280;3924;48.830;9.262;2023-04-23T06:39:01;98032.13;;;14.58;75.97
7760;BME280;3924;48.830;9.262;2023-04-23T06:41:27;98028.25;;;14.59;75.88
7760;BME280;3924;48.830;9.262;2023-04-23T06:43:54;98027.13;;;14.60;75.70
7760;BME280;3924;48.830;9.262;2023-04-23T06:46:21;98016.50;;;14.67;75.66
7760;BME280;3924;48.830;9.262;2023-04-23T06:48:47;98014.56;;;14.88;75.28
7760;BME280;3924;48.830;9.262;2023-04-23T06:51:14;98007.50;;;14.87;75.12
7760;BME280;3924;48.830;9.262;2023-04-23T06:53:41;98012.56;;;14.97;74.94
7760;BME280;3924;48.830;9.262;2023-04-23T06:56:07;98009.03;;;14.97;75.16
7760;BME280;3924;48.830;9.262;2023-04-23T06:58:34;98006.34;;;14.88;75.20
7760;BME280;3924;48.830;9.262;2023-04-23T07:01:01;97998.16;;;14.88;75.04
7760;BME280;3924;48.830;9.262;2023-04-23T07:03:32;97994.03;;;14.82;74.96
7760;BME280;3924;48.830;9.262;2023-04-23T07:05:59;97999.38;;;14.78;75.36
7760;BME280;3924;48.830;9.262;2023-04-23T07:08:25;98002.97;;;14.91;75.23
7760;BME280;3924;48.830;9.262;2023-04-23T07:10:52;97997.44;;;15.33;74.42
7760;BME280;3924;48.830;9.262;2023-04-23T07:13:18;97994.44;;;15.59;73.76
7760;BME280;3924;48.830;9.262;2023-04-23T07:15:45;97999.13;;;15.71;73.33
7760;BME280;3924;48.830;9.262;2023-04-23T07:18:11;97990.25;;;15.74;73.23
7760;BME280;3924;48.830;9.262;2023-04-23T07:20:39;98001.44;;;15.81;72.96
7760;BME280;3924;48.830;9.262;2023-04-23T07:23:06;97997.53;;;15.70;73.08
7760;BME280;3924;48.830;9.262;2023-04-23T07:25:33;97998.56;;;15.90;72.81
7760;BME280;3924;48.830;9.262;2023-04-23T07:27:59;97992.78;;;16.03;72.50
7760;BME280;3924;48.830;9.262;2023-04-23T07:30:26;97991.84;;;16.24;72.09
7760;BME280;3924;48.830;9.262;2023-04-23T07:32:53;97981.97;;;16.72;71.27
7760;BME280;3924;48.830;9.262;2023-04-23T07:35:21;97987.81;;;16.98;70.49
7760;BME280;3924;48.830;9.262;2023-04-23T07:37:47;97981.34;;;17.18;70.06
7760;BME280;3924;48.830;9.262;2023-04-23T07:40:20;97978.50;;;17.15;70.04
7760;BME280;3924;48.830;9.262;2023-04-23T07:42:47;97978.16;;;17.16;69.86
7760;BME280;3924;48.830;9.262;2023-04-23T07:45:14;97970.59;;;16.70;70.56
7760;BME280;3924;48.830;9.262;2023-04-23T07:47:41;97981.81;;;16.28;71.30
7760;BME280;3924;48.830;9.262;2023-04-23T07:50:08;97984.13;;;16.01;71.80
7760;BME280;3924;48.830;9.262;2023-04-23T07:52:35;97984.22;;;15.80;72.22
7760;BME280;3924;48.830;9.262;2023-04-23T07:55:01;97985.69;;;15.66;72.16
7760;BME280;3924;48.830;9.262;2023-04-23T07:57:28;97988.34;;;15.41;72.29
7760;BME280;3924;48.830;9.262;2023-04-23T07:59:54;97978.16;;;15.17;72.75
7760;BME280;3924;48.830;9.262;2023-04-23T08:02:20;97981.66;;;15.05;72.85
7760;BME280;3924;48.830;9.262;2023-04-23T08:04:51;97980.00;;;14.92;73.20
7760;BME280;3924;48.830;9.262;2023-04-23T08:07:18;97969.03;;;14.80;73.11
7760;BME280;3924;48.830;9.262;2023-04-23T08:09:45;97970.38;;;14.74;73.42
7760;BME280;3924;48.830;9.262;2023-04-23T08:12:12;97970.38;;;14.74;73.15
7760;BME280;3924;48.830;9.262;2023-04-23T08:14:39;97961.31;;;14.82;73.12
7760;BME280;3924;48.830;9.262;2023-04-23T08:17:05;97963.84;;;14.87;73.18
7760;BME280;3924;48.830;9.262;2023-04-23T08:19:31;97963.28;;;14.94;73.15
7760;BME280;3924;48.830;9.262;2023-04-23T08:21:58;97961.59;;;15.01;72.72
7760;BME280;3924;48.830;9.262;2023-04-23T08:24:25;97950.47;;;15.07;72.42
7760;BME280;3924;48.830;9.262;2023-04-23T08:26:52;97953.91;;;15.16;72.44
7760;BME280;3924;48.830;9.262;2023-04-23T08:29:18;97959.06;;;15.29;72.41
7760;BME280;3924;48.830;9.262;2023-04-23T08:31:45;97957.41;;;15.49;71.61
7760;BME280;3924;48.830;9.262;2023-04-23T08:34:12;97953.09;;;15.60;71.38
7760;BME280;3924;48.830;9.262;2023-04-23T08:36:40;97956.31;;;15.63;71.23
7760;BME280;3924;48.830;9.262;2023-04-23T08:39:06;97951.78;;;15.67;71.12
7760;BME280;3924;48.830;9.262;2023-04-23T08:41:38;97941.97;;;15.78;70.78
7760;BME280;3924;48.830;9.262;2023-04-23T08:44:17;97943.78;;;15.98;70.33
7760;BME280;3924;48.830;9.262;2023-04-23T08:46:45;97948.34;;;16.06;69.90
7760;BME280;3924;48.830;9.262;2023-04-23T08:49:13;97944.47;;;16.07;70.00
7760;BME280;3924;48.830;9.262;2023-04-23T08:51:54;97944.00;;;16.18;69.61
7760;BME280;3924;48.830;9.262;2023-04-23T08:54:25;97938.72;;;16.25;69.63
7760;BME280;3924;48.830;9.262;2023-04-23T08:56:55;97930.75;;;16.32;69.38
7760;BME280;3924;48.830;9.262;2023-04-23T08:59:29;97930.16;;;16.38;68.95
7760;BME280;3924;48.830;9.262;2023-04-23T09:01:56;97939.03;;;16.48;68.72
7760;BME280;3924;48.830;9.262;2023-04-23T09:04:23;97934.22;;;16.57;68.50
7760;BME280;3924;48.830;9.262;2023-04-23T09:06:51;97940.13;;;16.71;68.00
7760;BME280;3924;48.830;9.262;2023-04-23T09:09:19;97941.31;;;16.86;67.88
7760;BME280;3924;48.830;9.262;2023-04-23T09:11:49;97936.03;;;16.93;67.61
7760;BME280;3924;48.830;9.262;2023-04-23T09:14:17;97927.53;;;17.10;67.10
7760;BME280;3924;48.830;9.262;2023-04-23T09:16:45;97921.63;;;17.40;66.53
7760;BME280;3924;48.830;9.262;2023-04-23T09:19:12;97927.09;;;17.56;65.85
7760;BME280;3924;48.830;9.262;2023-04-23T09:21:38;97912.34;;;17.60;65.83
7760;BME280;3924;48.830;9.262;2023-04-23T09:24:08;97906.94;;;17.48;65.85
7760;BME280;3924;48.830;9.262;2023-04-23T09:26:43;97911.56;;;17.44;66.09
7760;BME280;3924;48.830;9.262;2023-04-23T09:29:13;97904.13;;;17.44;65.65
7760;BME280;3924;48.830;9.262;2023-04-23T09:31:46;97899.44;;;17.61;65.38
7760;BME280;3924;48.830;9.262;2023-04-23T09:34:15;97897.13;;;17.63;65.42
7760;BME280;3924;48.830;9.262;2023-04-23T09:36:44;97889.00;;;17.66;65.16
7760;BME280;3924;48.830;9.262;2023-04-23T09:39:12;97887.13;;;17.70;64.93
7760;BME280;3924;48.830;9.262;2023-04-23T09:41:39;97882.78;;;17.69;64.89
7760;BME280;3924;48.830;9.262;2023-04-23T09:44:06;97884.94;;;17.76;64.54
7760;BME280;3924;48.830;9.262;2023-04-23T09:46:39;97878.47;;;17.68;64.69
7760;BME280;3924;48.830;9.262;2023-04-23T09:49:07;97883.34;;;17.75;64.58
7760;BME280;3924;48.830;9.262;2023-04-23T09:51:43;97880.41;;;17.84;64.18
7760;BME280;3924;48.830;9.262;2023-04-23T09:54:16;97868.34;;;18.23;63.30
7760;BME280;3924;48.830;9.262;2023-04-23T09:56:48;97871.41;;;18.76;62.18
7760;BME280;3924;48.830;9.262;2023-04-23T09:59:19;97868.78;;;19.26;61.15
7760;BME280;3924;48.830;9.262;2023-04-23T10:01:54;97863.41;;;19.56;60.47
7760;BME280;3924;48.830;9.262;2023-04-23T10:04:23;97856.13;;;19.67;59.88
7760;BME280;3924;48.830;9.262;2023-04-23T10:06:57;97855.75;;;19.68;60.03
7760;BME280;3924;48.830;9.262;2023-04-23T10:09:43;97851.28;;;19.83;59.39
7760;BME280;3924;48.830;9.262;2023-04-23T10:12:12;97859.38;;;20.03;59.06
7760;BME280;3924;48.830;9.262;2023-04-23T10:14:59;97850.50;;;19.86;59.35
7760;BME280;3924;48.830;9.262;2023-04-23T10:17:25;97841.19;;;19.94;58.86
7760;BME280;3924;48.830;9.262;2023-04-23T10:19:54;97832.03;;;20.17;58.25
7760;BME280;3924;48.830;9.262;2023-04-23T10:22:21;97827.13;;;20.00;58.34
7760;BME280;3924;48.830;9.262;2023-04-23T10:24:52;97823.41;;;19.62;58.85
7760;BME280;3924;48.830;9.262;2023-04-23T10:27:25;97815.84;;;19.29;59.50
7760;BME280;3924;48.830;9.262;2023-04-23T10:30:10;97827.50;;;19.22;59.34
7760;BME280;3924;48.830;9.262;2023-04-23T10:32:38;97821.03;;;19.11;59.14
7760;BME280;3924;48.830;9.262;2023-04-23T10:35:07;97825.53;;;19.00;59.38
7760;BME280;3924;48.830;9.262;2023-04-23T10:37:34;97819.91;;;18.93;59.18
7760;BME280;3924;48.830;9.262;2023-04-23T10:40:07;97814.53;;;19.00;58.82
7760;BME280;3924;48.830;9.262;2023-04-23T10:42:42;97810.59;;;19.47;57.83
7760;BME280;3924;48.830;9.262;2023-04-23T10:45:17;97802.00;;;19.75;57.06
7760;BME280;3924;48.830;9.262;2023-04-23T10:47:47;97803.97;;;19.74;56.69
7760;BME280;3924;48.830;9.262;2023-04-23T10:52:49;97799.44;;;19.59;56.91
7760;BME280;3924;48.830;9.262;2023-04-23T10:55:20;97799.31;;;19.78;56.31
7760;BME280;3924;48.830;9.262;2023-04-23T10:57:55;97788.09;;;19.90;55.84
7760;BME280;3924;48.830;9.262;2023-04-23T11:00:29;97795.69;;;20.01;55.40
7760;BME280;3924;48.830;9.262;2023-04-23T11:02:56;97786.47;;;19.89;55.62
7760;BME280;3924;48.830;9.262;2023-04-23T11:05:23;97785.25;;;19.83;55.45
7760;BME280;3924;48.830;9.262;2023-04-23T11:08:07;97783.41;;;19.94;55.07
7760;BME280;3924;48.830;9.262;2023-04-23T11:10:56;97773.28;;;20.36;54.26
7760;BME280;3924;48.830;9.262;2023-04-23T11:13:24;97776.34;;;20.27;53.97
7760;BME280;3924;48.830;9.262;2023-04-23T11:18:54;97771.50;;;20.17;54.14
7760;BME280;3924;48.830;9.262;2023-04-23T11:21:21;97770.16;;;20.04;54.08
7760;BME280;3924;48.830;9.262;2023-04-23T11:23:47;97760.72;;;19.71;54.35
7760;BME280;3924;48.830;9.262;2023-04-23T11:26:16;97766.66;;;19.50;54.78
7760;BME280;3924;48.830;9.262;2023-04-23T11:28:43;97755.91;;;19.41;54.75
7760;BME280;3924;48.830;9.262;2023-04-23T11:31:10;97760.97;;;19.36;54.79
7760;BME280;3924;48.830;9.262;2023-04-23T11:33:37;97764.72;;;19.24;54.74
7760;BME280;3924;48.830;9.262;2023-04-23T11:36:04;97751.56;;;19.14;54.89
7760;BME280;3924;48.830;9.262;2023-04-23T11:38:31;97748.81;;;19.14;54.57
7760;BME280;3924;48.830;9.262;2023-04-23T11:41:01;97739.44;;;19.41;53.86
7760;BME280;3924;48.830;9.262;2023-04-23T11:43:28;97737.63;;;19.79;52.96
7760;BME280;3924;48.830;9.262;2023-04-23T11:45:55;97733.38;;;19.85;52.87
7760;BME280;3924;48.830;9.262;2023-04-23T11:48:22;97738.03;;;19.81;52.74
7760;BME280;3924;48.830;9.262;2023-04-23T11:50:49;97733.47;;;19.92;52.40
7760;BME280;3924;48.830;9.262;2023-04-23T11:53:15;97722.88;;;19.94;52.06
7760;BME280;3924;48.830;9.262;2023-04-23T11:55:42;97707.03;;;20.18;51.86
7760;BME280;3924;48.830;9.262;2023-04-23T11:58:11;97702.56;;;20.43;50.83
7760;BME280;3924;48.830;9.262;2023-04-23T12:00:37;97702.78;;;20.65;50.34
7760;BME280;3924;48.830;9.262;2023-04-23T12:03:04;97704.56;;;20.87;49.96
7760;BME280;3924;48.830;9.262;2023-04-23T12:05:39;97693.59;;;20.94;49.41
7760;BME280;3924;48.830;9.262;2023-04-23T12:11:00;97695.81;;;20.74;49.70
7760;BME280;3924;48.830;9.262;2023-04-23T12:13:28;97685.69;;;20.89;49.41
7760;BME280;3924;48.830;9.262;2023-04-23T12:15:58;97679.06;;;20.97;49.11
7760;BME280;3924;48.830;9.262;2023-04-23T12:18:29;97681.91;;;21.12;48.98
7760;BME280;3924;48.830;9.262;2023-04-23T12:21:12;97670.72;;;20.90;49.10
7760;BME280;3924;48.830;9.262;2023-04-23T12:23:41;97681.75;;;20.87;49.22
7760;BME280;3924;48.830;9.262;2023-04-23T12:26:11;97675.69;;;21.22;48.57
7760;BME280;3924;48.830;9.262;2023-04-23T12:28:51;97664.88;;;21.61;47.88
7760;BME280;3924;48.830;9.262;2023-04-23T12:31:22;97668.00;;;21.49;47.89
7760;BME280;3924;48.830;9.262;2023-04-23T12:34:03;97658.63;;;21.06;48.47
7760;BME280;3924;48.830;9.262;2023-04-23T12:36:30;97654.88;;;20.76;49.13
7760;BME280;3924;48.830;9.262;2023-04-23T12:39:34;97648.72;;;20.94;48.81
7760;BME280;3924;48.830;9.262;2023-04-23T12:42:05;97646.84;;;21.09;48.40
7760;BME280;3924;48.830;9.262;2023-04-23T12:44:38;97657.44;;;21.07;48.52
7760;BME280;3924;48.830;9.262;2023-04-23T12:47:06;97643.88;;;21.39;47.69
7760;BME280;3924;48.830;9.262;2023-04-23T12:49:35;97634.59;;;21.79;47.11
7760;BME280;3924;48.830;9.262;2023-04-23T12:52:03;97640.25;;;22.15;46.29
7760;BME280;3924;48.830;9.262;2023-04-23T12:54:33;97641.06;;;22.40;46.02
7760;BME280;3924;48.830;9.262;2023-04-23T12:57:04;97628.84;;;22.62;45.72
7760;BME280;3924;48.830;9.262;2023-04-23T12:59:31;97615.41;;;22.68;45.40
7760;BME280;3924;48.830;9.262;2023-04-23T13:02:00;97619.75;;;22.80;45.33
7760;BME280;3924;48.830;9.262;2023-04-23T13:04:31;97601.97;;;22.77;45.07
7760;BME280;3924;48.830;9.262;2023-04-23T13:06:58;97607.91;;;22.83;45.04
7760;BME280;3924;48.830;9.262;2023-04-23T13:09:25;97603.56;;;22.75;45.00
7760;BME280;3924;48.830;9.262;2023-04-23T13:11:53;97600.03;;;22.49;45.30
7760;BME280;3924;48.830;9.262;2023-04-23T13:14:20;97590.09;;;22.02;45.75
7760;BME280;3924;48.830;9.262;2023-04-23T13:16:47;97591.72;;;22.14;45.89
7760;BME280;3924;48.830;9.262;2023-04-23T13:19:14;97576.75;;;22.54;45.10
7760;BME280;3924;48.830;9.262;2023-04-23T13:21:42;97575.97;;;22.35;45.14
7760;BME280;3924;48.830;9.262;2023-04-23T13:24:09;97566.41;;;21.87;46.07
7760;BME280;3924;48.830;9.262;2023-04-23T13:26:36;97564.72;;;21.36;46.86
7760;BME280;3924;48.830;9.262;2023-04-23T13:29:02;97556.75;;;21.27;46.91
7760;BME280;3924;48.830;9.262;2023-04-23T13:31:29;97548.44;;;21.20;46.88
7760;BME280;3924;48.830;9.262;2023-04-23T13:33:58;97545.31;;;21.25;46.91
7760;BME280;3924;48.830;9.262;2023-04-23T13:36:24;97539.59;;;21.80;45.89